Time;durP1;ratioP1;P1;durP2;ratioP2;P2;SDS_P1;SDS_P2;PMS_P1;PMS_P2;Temp;Humidity;BMP_temperature;BMP_pressure;BME280_temperature;BME280_humidity;BME280_pressure;Samples;Min_cycle;Max_cycle;Signal;HPM_P1;HPM_P2
2023/06/18 00:00:41;;;;;;;15.65;14.05;;;;;;;11.88;nan;100670.13;5013840;28;20059;-81
2023/06/18 00:03:08;;;;;;;15.02;13.63;;;;;;;11.83;nan;100671.09;4994980;28;20422;-79
2023/06/18 00:05:38;;;;;;;14.75;13.25;;;;;;;11.82;nan;100672.00;5002602;28;20626;-80
2023/06/18 00:08:05;;;;;;;16.02;14.32;;;;;;;11.73;nan;100673.97;5013226;28;20041;-79
2023/06/18 00:10:33;;;;;;;13.43;12.13;;;;;;;11.68;nan;100676.72;4995300;28;20050;-80
2023/06/18 00:13:00;;;;;;;14.68;13.18;;;;;;;11.68;nan;100682.03;4989840;28;20041;-80
2023/06/18 00:15:27;;;;;;;14.43;13.02;;;;;;;11.68;nan;100683.78;4994039;28;20506;-81
2023/06/18 00:17:56;;;;;;;15.25;13.73;;;;;;;11.57;nan;100681.41;4992236;28;20028;-79
2023/06/18 00:20:23;;;;;;;15.00;13.52;;;;;;;11.51;nan;100676.28;5015043;28;20042;-80
2023/06/18 00:22:53;;;;;;;16.13;14.43;;;;;;;11.53;nan;100682.41;5003845;28;20045;-80
2023/06/18 00:25:20;;;;;;;16.23;13.75;;;;;;;11.64;nan;100682.16;5001664;28;20824;-79
2023/06/18 00:27:47;;;;;;;15.82;14.20;;;;;;;11.60;nan;100681.34;4973590;28;20518;-79
2023/06/18 00:30:14;;;;;;;15.82;14.25;;;;;;;11.48;nan;100676.34;5021910;28;20134;-79
2023/06/18 00:32:43;;;;;;;15.70;14.15;;;;;;;11.42;nan;100676.50;4996384;28;20048;-79
2023/06/18 00:35:12;;;;;;;15.68;14.07;;;;;;;11.41;nan;100672.97;4997457;28;20478;-79
2023/06/18 00:37:39;;;;;;;15.82;14.27;;;;;;;11.42;nan;100669.41;5013752;28;20042;-80
2023/06/18 00:40:07;;;;;;;16.15;14.57;;;;;;;11.43;nan;100670.28;4997858;28;20495;-80
2023/06/18 00:42:34;;;;;;;16.02;14.05;;;;;;;11.39;nan;100666.00;5011432;28;20044;-80
2023/06/18 00:45:02;;;;;;;15.68;14.18;;;;;;;11.42;nan;100664.13;5021003;28;20048;-80
2023/06/18 00:47:32;;;;;;;16.48;14.77;;;;;;;11.39;nan;100666.84;4968093;28;20046;-80
2023/06/18 00:50:00;;;;;;;16.35;14.68;;;;;;;11.40;nan;100668.59;4990914;28;20050;-80
2023/06/18 00:52:28;;;;;;;16.80;15.20;;;;;;;11.40;nan;100665.94;5020675;28;20048;-79
2023/06/18 00:54:56;;;;;;;19.15;16.27;;;;;;;11.41;nan;100669.47;4981995;28;20125;-80
2023/06/18 00:57:23;;;;;;;18.17;16.38;;;;;;;11.42;nan;100669.41;5028107;28;20049;-80
2023/06/18 00:59:51;;;;;;;18.50;16.65;;;;;;;11.48;nan;100668.41;4999485;28;20053;-79
2023/06/18 01:02:23;;;;;;;17.50;15.73;;;;;;;11.50;nan;100672.75;4993273;28;20620;-80
2023/06/18 01:04:53;;;;;;;16.85;15.25;;;;;;;11.42;nan;100673.84;4999956;28;20046;-81
2023/06/18 01:07:21;;;;;;;16.13;14.60;;;;;;;11.29;nan;100673.28;5001348;28;20048;-79
2023/06/18 01:09:54;;;;;;;16.13;14.40;;;;;;;11.35;nan;100665.22;4989680;28;20672;-81
2023/06/18 01:12:22;;;;;;;15.43;13.95;;;;;;;11.35;nan;100667.84;4983142;28;20672;-81
2023/06/18 01:14:54;;;;;;;16.77;15.00;;;;;;;11.35;nan;100669.59;4993501;28;20031;-80
2023/06/18 01:17:22;;;;;;;15.10;13.60;;;;;;;11.28;nan;100675.06;4994100;28;20739;-80
2023/06/18 01:19:58;;;;;;;15.48;14.00;;;;;;;11.19;nan;100677.03;4984852;28;20044;-81
2023/06/18 01:22:32;;;;;;;17.45;14.88;;;;;;;11.08;nan;100669.34;4996422;28;20044;-81
2023/06/18 01:25:02;;;;;;;;;;;;;;;11.01;nan;100675.66;5014390;28;20037;-81
2023/06/18 01:27:33;;;;;;;16.25;14.18;;;;;;;11.03;nan;100676.50;5001127;28;19929;-80
2023/06/18 01:30:01;;;;;;;16.75;14.40;;;;;;;11.11;nan;100669.28;4998518;28;20068;-80
2023/06/18 01:32:28;;;;;;;17.17;15.15;;;;;;;11.11;nan;100671.94;5001796;28;20798;-78
2023/06/18 01:34:55;;;;;;;18.23;16.15;;;;;;;11.09;nan;100670.19;5015064;28;20091;-80
2023/06/18 01:38:01;;;;;;;17.58;14.57;;;;;;;11.10;nan;100683.41;4996006;28;20037;-79
2023/06/18 01:40:35;;;;;;;18.48;16.00;;;;;;;11.15;nan;100691.22;5019006;28;20052;-82
2023/06/18 01:43:11;;;;;;;17.70;15.90;;;;;;;11.13;nan;100680.69;4996951;28;20519;-82
2023/06/18 01:45:54;;;;;;;17.90;15.98;;;;;;;11.19;nan;100693.78;5005438;28;20492;-81
2023/06/18 01:48:22;;;;;;;18.70;16.30;;;;;;;11.22;nan;100696.34;4999399;28;20650;-81
2023/06/18 01:50:50;;;;;;;18.08;16.20;;;;;;;11.28;nan;100708.56;5015354;28;20046;-81
2023/06/18 01:53:21;;;;;;;19.05;16.27;;;;;;;11.29;nan;100699.72;4986917;28;20053;-80
2023/06/18 01:55:51;;;;;;;17.63;15.73;;;;;;;11.25;nan;100706.84;4967726;28;20045;-80
2023/06/18 01:58:21;;;;;;;18.65;16.65;;;;;;;11.35;nan;100698.69;4980777;28;20042;-81
2023/06/18 02:00:49;;;;;;;19.05;15.88;;;;;;;11.27;nan;100698.91;5024495;28;20039;-80
2023/06/18 02:03:17;;;;;;;17.83;15.57;;;;;;;11.21;nan;100694.59;4992300;28;20045;-81
2023/06/18 02:05:44;;;;;;;18.70;16.70;;;;;;;11.25;nan;100687.47;5009021;28;20072;-80
2023/06/18 02:08:11;;;;;;;19.77;16.75;;;;;;;11.28;nan;100693.56;5010875;28;20055;-80
2023/06/18 02:10:38;;;;;;;18.98;16.67;;;;;;;11.38;nan;100682.78;4997750;28;20046;-81
2023/06/18 02:13:06;;;;;;;18.33;16.02;;;;;;;11.52;nan;100693.91;4991420;28;20049;-80
2023/06/18 02:15:33;;;;;;;18.00;16.20;;;;;;;11.37;nan;100699.56;4991286;28;20044;-81
2023/06/18 02:18:00;;;;;;;18.60;16.23;;;;;;;11.45;nan;100703.75;5005592;28;20461;-81
2023/06/18 02:20:27;;;;;;;17.67;15.77;;;;;;;11.43;nan;100702.91;5002710;28;20404;-81
2023/06/18 02:22:54;;;;;;;19.88;16.40;;;;;;;11.51;nan;100695.66;5005899;28;20053;-80
2023/06/18 02:25:28;;;;;;;18.02;15.82;;;;;;;11.53;nan;100698.28;5008061;28;20034;-81
2023/06/18 02:27:57;;;;;;;17.70;15.70;;;;;;;11.42;nan;100692.38;4997386;28;20686;-80
2023/06/18 02:30:25;;;;;;;17.63;15.57;;;;;;;11.41;nan;100693.28;4999832;28;20418;-80
2023/06/18 02:32:52;;;;;;;17.92;15.68;;;;;;;11.43;nan;100688.81;5010615;28;20041;-80
2023/06/18 02:35:19;;;;;;;16.20;14.50;;;;;;;11.44;nan;100691.44;4989982;28;20048;-80
2023/06/18 02:37:46;;;;;;;16.20;14.40;;;;;;;11.49;nan;100689.53;5012530;28;20048;-80
2023/06/18 02:40:14;;;;;;;17.35;15.55;;;;;;;11.53;nan;100695.66;5002035;28;20033;-80
2023/06/18 02:42:47;;;;;;;16.63;14.82;;;;;;;11.56;nan;100692.91;5000722;28;20040;-82
2023/06/18 02:45:21;;;;;;;17.92;16.15;;;;;;;11.60;nan;100691.06;4995218;28;20029;-81
2023/06/18 02:47:49;;;;;;;16.65;14.95;;;;;;;11.60;nan;100693.69;4979890;28;20045;-81
2023/06/18 02:50:17;;;;;;;17.88;15.50;;;;;;;11.57;nan;100702.59;4987693;28;20034;-81
2023/06/18 02:52:46;;;;;;;17.05;15.23;;;;;;;11.54;nan;100694.75;4997089;28;20056;-80
2023/06/18 02:55:13;;;;;;;15.90;14.30;;;;;;;11.59;nan;100684.91;4980262;28;20456;-81
2023/06/18 02:57:41;;;;;;;17.77;15.93;;;;;;;11.66;nan;100693.56;4994021;28;20049;-81
2023/06/18 03:00:11;;;;;;;17.42;15.60;;;;;;;11.65;nan;100691.81;4999114;28;20047;-81
2023/06/18 03:02:39;;;;;;;18.55;15.85;;;;;;;11.63;nan;100706.88;5008177;28;20150;-80
2023/06/18 03:05:07;;;;;;;17.05;14.45;;;;;;;11.64;nan;100692.72;4976453;28;20050;-80
2023/06/18 03:07:35;;;;;;;16.42;14.60;;;;;;;11.67;nan;100695.28;5001188;28;20047;-80
2023/06/18 03:10:03;;;;;;;16.33;14.50;;;;;;;11.73;nan;100696.03;4996871;28;20729;-81
2023/06/18 03:12:30;;;;;;;17.15;15.30;;;;;;;11.78;nan;100695.94;5013755;28;20048;-81
2023/06/18 03:14:57;;;;;;;16.60;14.93;;;;;;;11.80;nan;100692.34;5008901;28;20042;-82
2023/06/18 03:17:26;;;;;;;16.73;14.88;;;;;;;11.86;nan;100694.00;4994475;28;20054;-81
2023/06/18 03:19:53;;;;;;;19.88;15.32;;;;;;;11.92;nan;100692.94;4974607;28;20038;-82
2023/06/18 03:22:20;;;;;;;17.05;15.10;;;;;;;11.92;nan;100701.75;5015279;28;20030;-82
2023/06/18 03:24:49;;;;;;;17.38;15.43;;;;;;;11.90;nan;100692.97;4992022;28;20046;-81
2023/06/18 03:27:16;;;;;;;16.20;14.57;;;;;;;11.89;nan;100693.03;5011601;28;20048;-82
2023/06/18 03:29:43;;;;;;;16.58;14.88;;;;;;;11.95;nan;100708.78;5014655;28;20028;-81
2023/06/18 03:32:10;;;;;;;15.98;14.30;;;;;;;11.92;nan;100709.69;4994101;28;20033;-81
2023/06/18 03:34:42;;;;;;;16.02;14.27;;;;;;;11.96;nan;100708.72;4994490;28;20040;-82
2023/06/18 03:37:09;;;;;;;16.00;14.27;;;;;;;12.00;nan;100715.66;5003428;28;20048;-81
2023/06/18 03:39:36;;;;;;;16.58;14.48;;;;;;;11.97;nan;100714.88;4965395;28;20038;-80
2023/06/18 03:42:06;;;;;;;17.65;14.50;;;;;;;11.88;nan;100713.34;5018653;28;20068;-80
2023/06/18 03:44:33;;;;;;;14.98;13.40;;;;;;;11.84;nan;100717.81;5006845;28;20513;-80
2023/06/18 03:47:00;;;;;;;15.55;13.90;;;;;;;11.90;nan;100715.94;5000664;28;20050;-82
2023/06/18 03:49:27;;;;;;;16.75;14.77;;;;;;;11.89;nan;100711.56;5012048;28;20026;-81
2023/06/18 03:51:54;;;;;;;16.35;14.75;;;;;;;11.91;nan;100704.44;4991257;28;20068;-81
2023/06/18 03:54:24;;;;;;;17.02;15.40;;;;;;;11.99;nan;100710.41;4991119;28;20044;-81
2023/06/18 03:56:53;;;;;;;16.85;15.10;;;;;;;12.02;nan;100710.31;5001882;28;20047;-81
2023/06/18 03:59:20;;;;;;;15.15;13.65;;;;;;;12.07;nan;100703.16;5025976;28;20025;-81
2023/06/18 04:01:47;;;;;;;16.25;14.60;;;;;;;12.17;nan;100707.28;4997997;28;20045;-80
2023/06/18 04:04:15;;;;;;;14.57;13.07;;;;;;;12.16;nan;100709.97;4997912;28;20549;-82
2023/06/18 04:06:42;;;;;;;15.88;14.27;;;;;;;12.20;nan;100701.94;4999745;28;20033;-81
2023/06/18 04:09:10;;;;;;;15.70;14.07;;;;;;;12.14;nan;100707.38;5006867;28;20030;-82
2023/06/18 04:11:42;;;;;;;15.88;14.05;;;;;;;12.12;nan;100711.84;5008255;28;20042;-82
2023/06/18 04:14:09;;;;;;;14.63;13.10;;;;;;;12.15;nan;100719.72;4994737;28;20041;-81
2023/06/18 04:16:36;;;;;;;15.15;13.48;;;;;;;12.21;nan;100711.59;4999774;28;20403;-81
2023/06/18 04:19:03;;;;;;;13.98;12.40;;;;;;;12.28;nan;100707.03;5002882;28;20033;-82
2023/06/18 04:21:30;;;;;;;14.50;13.00;;;;;;;12.32;nan;100706.03;4990149;28;20475;-82
2023/06/18 04:23:57;;;;;;;19.90;12.07;;;;;;;12.32;nan;100706.88;4982518;28;20056;-81
2023/06/18 04:26:24;;;;;;;14.07;12.52;;;;;;;12.34;nan;100707.69;5022790;28;20037;-81
2023/06/18 04:28:51;;;;;;;14.63;12.82;;;;;;;12.31;nan;100709.59;5000798;28;20048;-82
2023/06/18 04:31:18;;;;;;;14.25;12.75;;;;;;;12.28;nan;100707.03;5004773;28;20036;-81
2023/06/18 04:33:45;;;;;;;14.77;13.18;;;;;;;12.29;nan;100708.75;5001198;28;20030;-81
2023/06/18 04:36:12;;;;;;;13.43;12.02;;;;;;;12.48;nan;100704.69;4981835;28;20513;-80
2023/06/18 04:38:39;;;;;;;13.60;12.20;;;;;;;12.51;nan;100698.44;5021070;28;20045;-81
2023/06/18 04:41:06;;;;;;;15.88;12.35;;;;;;;12.52;nan;100710.75;5005140;28;20038;-81
2023/06/18 04:43:33;;;;;;;14.00;12.35;;;;;;;12.50;nan;100712.59;5008294;28;20050;-82
2023/06/18 04:46:00;;;;;;;14.13;12.63;;;;;;;12.48;nan;100714.44;4998918;28;20033;-82
2023/06/18 04:48:27;;;;;;;13.63;12.20;;;;;;;12.55;nan;100719.50;5012861;28;20042;-82
2023/06/18 04:50:55;;;;;;;13.23;11.90;;;;;;;12.70;nan;100718.22;5023778;28;20573;-82
2023/06/18 04:53:22;;;;;;;14.57;13.07;;;;;;;12.79;nan;100730.34;4981822;28;20711;-81
2023/06/18 04:55:49;;;;;;;13.25;11.85;;;;;;;12.71;nan;100721.75;4998719;28;20037;-81
2023/06/18 04:58:16;;;;;;;14.18;11.88;;;;;;;12.73;nan;100723.44;5012770;28;20034;-83
2023/06/18 05:00:44;;;;;;;15.55;13.95;;;;;;;12.72;nan;100728.78;4993666;28;20040;-81
2023/06/18 05:03:11;;;;;;;14.57;13.15;;;;;;;12.66;nan;100732.47;4997164;28;20050;-81
2023/06/18 05:05:38;;;;;;;14.02;12.63;;;;;;;12.73;nan;100725.22;5001684;28;20046;-82
2023/06/18 05:08:05;;;;;;;15.85;14.27;;;;;;;12.78;nan;100723.28;4990276;28;20064;-81
2023/06/18 05:10:33;;;;;;;15.43;13.82;;;;;;;12.91;nan;100720.25;5006141;28;20037;-82
2023/06/18 05:13:00;;;;;;;15.88;14.27;;;;;;;13.06;nan;100718.06;5016273;28;20673;-82
2023/06/18 05:15:27;;;;;;;14.90;13.38;;;;;;;13.30;nan;100720.00;5026719;28;20496;-82
2023/06/18 05:17:54;;;;;;;13.70;12.30;;;;;;;13.50;nan;100716.72;5020436;28;20051;-82
2023/06/18 05:20:21;;;;;;;12.95;11.63;;;;;;;13.73;nan;100719.53;4997185;28;20034;-82
2023/06/18 05:22:49;;;;;;;14.68;13.18;;;;;;;13.86;nan;100712.00;5015551;28;20037;-81
2023/06/18 05:25:15;;;;;;;15.00;13.40;;;;;;;13.90;nan;100705.69;4987902;28;20042;-82
2023/06/18 05:27:42;;;;;;;18.50;16.60;;;;;;;14.01;nan;100713.28;5016776;28;20048;-81
2023/06/18 05:30:10;;;;;;;20.65;17.33;;;;;;;14.06;nan;100714.88;4999526;28;20052;-81
2023/06/18 05:32:37;;;;;;;17.15;15.32;;;;;;;14.14;nan;100716.41;4999107;28;20044;-81
2023/06/18 05:35:04;;;;;;;18.25;16.35;;;;;;;14.19;nan;100711.78;5024403;28;20448;-81
2023/06/18 05:37:31;;;;;;;17.80;15.93;;;;;;;14.49;nan;100710.75;4993098;28;20048;-80
2023/06/18 05:39:58;;;;;;;20.60;18.40;;;;;;;15.03;nan;100708.78;4998937;28;20042;-81
2023/06/18 05:42:26;;;;;;;16.45;14.75;;;;;;;17.02;nan;100702.16;4998090;28;20492;-81
2023/06/18 05:44:54;;;;;;;14.23;12.82;;;;;;;19.16;nan;100699.31;4993834;28;20034;-81
2023/06/18 05:47:21;;;;;;;14.95;13.43;;;;;;;21.12;nan;100709.19;4998085;28;20045;-82
2023/06/18 05:49:48;;;;;;;14.27;12.50;;;;;;;22.65;nan;100710.66;4979926;28;20046;-82
2023/06/18 05:52:15;;;;;;;13.93;12.68;;;;;;;23.67;nan;100708.69;5014403;28;20052;-81
2023/06/18 05:54:42;;;;;;;12.07;10.98;;;;;;;24.56;nan;100715.44;5010057;28;20048;-82
2023/06/18 05:57:11;;;;;;;12.48;11.27;;;;;;;25.46;nan;100724.44;5015613;28;20040;-81
2023/06/18 05:59:38;;;;;;;12.52;11.40;;;;;;;25.80;nan;100725.25;5011751;28;20399;-83
2023/06/18 06:02:05;;;;;;;12.18;11.10;;;;;;;25.88;nan;100719.22;5007213;28;20034;-81
2023/06/18 06:04:32;;;;;;;12.15;10.95;;;;;;;25.60;nan;100721.47;4983974;28;20533;-80
2023/06/18 06:06:59;;;;;;;11.57;10.48;;;;;;;25.32;nan;100728.28;5009524;28;20034;-80
2023/06/18 06:09:26;;;;;;;11.07;10.10;;;;;;;24.59;nan;100721.47;4995890;28;20037;-80
2023/06/18 06:11:53;;;;;;;12.68;11.38;;;;;;;23.77;nan;100734.00;5019782;28;20044;-80
2023/06/18 06:14:21;;;;;;;12.05;10.95;;;;;;;23.06;nan;100737.38;5018364;28;20041;-81
2023/06/18 06:16:48;;;;;;;12.27;11.18;;;;;;;22.50;nan;100735.94;5013098;28;20048;-80
2023/06/18 06:19:15;;;;;;;12.38;11.32;;;;;;;22.23;nan;100738.69;4997701;28;20380;-81
2023/06/18 06:21:44;;;;;;;12.25;11.15;;;;;;;21.88;nan;100737.38;4985346;28;20038;-79
2023/06/18 06:24:11;;;;;;;12.18;11.07;;;;;;;21.81;nan;100730.66;4988182;28;20053;-80
2023/06/18 06:26:38;;;;;;;11.80;10.80;;;;;;;21.79;nan;100732.59;4998569;28;20030;-80
2023/06/18 06:29:05;;;;;;;11.63;10.63;;;;;;;21.78;nan;100738.09;4997917;28;20063;-80
2023/06/18 06:31:32;;;;;;;11.93;10.82;;;;;;;21.78;nan;100738.09;5011350;28;20402;-80
2023/06/18 06:33:59;;;;;;;11.68;10.68;;;;;;;21.74;nan;100742.78;5003451;28;20038;-80
2023/06/18 06:36:26;;;;;;;11.95;10.85;;;;;;;;;;4990261;28;20050;-80
2023/06/18 06:38:53;;;;;;;12.05;11.05;;;;;;;21.87;nan;100746.41;5001870;28;20063;-80
2023/06/18 06:41:20;;;;;;;11.77;10.57;;;;;;;21.98;nan;100739.44;5017308;28;20044;-81
2023/06/18 06:43:47;;;;;;;12.80;11.55;;;;;;;22.10;nan;100741.34;5002614;28;20044;-80
2023/06/18 06:46:13;;;;;;;11.70;10.52;;;;;;;22.12;nan;100748.34;5015859;28;20044;-80
2023/06/18 06:48:40;;;;;;;10.73;9.65;;;;;;;22.07;nan;100742.41;5009334;28;20298;-80
2023/06/18 06:51:07;;;;;;;10.55;9.10;;;;;;;22.31;nan;100744.41;5009587;28;20505;-81
2023/06/18 06:53:34;;;;;;;9.75;8.88;;;;;;;22.45;nan;100744.34;5011385;28;20045;-81
2023/06/18 06:56:02;;;;;;;9.85;8.80;;;;;;;22.50;nan;100749.41;5000041;28;20038;-81
2023/06/18 06:58:29;;;;;;;9.10;8.25;;;;;;;22.62;nan;100751.25;5012425;28;20044;-80
2023/06/18 07:00:56;;;;;;;9.07;8.27;;;;;;;22.69;nan;100757.91;4988289;28;20050;-81
2023/06/18 07:03:23;;;;;;;9.18;8.38;;;;;;;22.73;nan;100759.44;5009321;28;20038;-80
2023/06/18 07:05:50;;;;;;;9.25;8.45;;;;;;;22.78;nan;100765.34;5009900;28;20035;-81
2023/06/18 07:08:20;;;;;;;9.30;8.40;;;;;;;22.94;nan;100760.66;5010322;28;20033;-80
2023/06/18 07:10:47;;;;;;;10.95;9.27;;;;;;;23.06;nan;100750.88;4995361;28;20046;-79
2023/06/18 07:13:14;;;;;;;10.57;8.07;;;;;;;23.10;nan;100748.78;5004158;28;20093;-82
2023/06/18 07:15:41;;;;;;;10.35;7.72;;;;;;;22.97;nan;100751.50;4971550;28;20402;-80
2023/06/18 07:18:08;;;;;;;8.13;7.32;;;;;;;22.83;nan;100755.13;5025529;28;20049;-81
2023/06/18 07:20:35;;;;;;;7.32;6.70;;;;;;;22.99;nan;100739.66;5010570;28;20041;-80
2023/06/18 07:23:05;;;;;;;7.30;6.55;;;;;;;23.10;nan;100748.78;4993204;28;20068;-80
2023/06/18 07:25:32;;;;;;;6.53;5.82;;;;;;;23.22;nan;100745.25;5006166;28;20430;-83
2023/06/18 07:27:59;;;;;;;9.18;6.53;;;;;;;23.33;nan;100744.47;4996530;28;20043;-80
2023/06/18 07:30:26;;;;;;;7.22;6.45;;;;;;;23.25;nan;100745.00;5011737;28;20053;-82
2023/06/18 07:32:53;;;;;;;6.03;5.43;;;;;;;23.37;nan;100743.25;5014190;28;20041;-82
2023/06/18 07:35:20;;;;;;;10.98;6.20;;;;;;;23.51;nan;100745.81;5024606;28;20045;-81
2023/06/18 07:37:47;;;;;;;6.63;6.03;;;;;;;23.60;nan;100745.16;5005877;28;20399;-81
2023/06/18 07:40:15;;;;;;;8.90;5.43;;;;;;;23.69;nan;100743.63;4982473;28;20034;-82
2023/06/18 07:42:42;;;;;;;9.35;6.00;;;;;;;23.69;nan;100744.47;5006225;28;20046;-82
2023/06/18 07:45:10;;;;;;;6.70;6.10;;;;;;;23.54;nan;100740.19;5022032;28;20050;-83
2023/06/18 07:47:36;;;;;;;8.55;5.13;;;;;;;23.84;nan;100740.66;4993286;28;20038;-82
2023/06/18 07:50:04;;;;;;;6.75;5.70;;;;;;;23.94;nan;100734.56;5017184;28;20038;-80
2023/06/18 07:52:32;;;;;;;6.60;5.75;;;;;;;23.99;nan;100740.50;4990691;28;20038;-80
2023/06/18 07:55:00;;;;;;;9.13;6.03;;;;;;;24.25;nan;100741.22;5027608;28;20049;-84
2023/06/18 07:57:29;;;;;;;6.95;6.30;;;;;;;24.40;nan;100738.25;5020474;28;20050;-82
2023/06/18 07:59:56;;;;;;;6.70;6.10;;;;;;;24.42;nan;100744.38;4998657;28;20435;-81
2023/06/18 08:02:23;;;;;;;7.03;6.43;;;;;;;24.52;nan;100746.34;5016592;28;20041;-81
2023/06/18 08:04:50;;;;;;;6.03;5.43;;;;;;;24.57;nan;100746.88;5000117;28;20373;-82
2023/06/18 08:07:17;;;;;;;6.32;5.72;;;;;;;24.36;nan;100755.63;5015260;28;20034;-83
2023/06/18 08:09:44;;;;;;;9.77;5.80;;;;;;;24.19;nan;100749.78;4992110;28;20036;-83
2023/06/18 08:12:11;;;;;;;7.78;6.50;;;;;;;23.99;nan;100754.00;4991873;28;20042;-82
2023/06/18 08:14:38;;;;;;;7.18;6.57;;;;;;;23.59;nan;100748.81;4985336;28;20045;-82
2023/06/18 08:17:05;;;;;;;7.72;6.00;;;;;;;23.99;nan;100748.59;5012111;28;20038;-82
2023/06/18 08:19:32;;;;;;;6.90;6.20;;;;;;;24.34;nan;100743.25;5001492;28;20046;-82
2023/06/18 08:22:01;;;;;;;6.15;5.65;;;;;;;24.87;nan;100741.75;4990863;28;20497;-81
2023/06/18 08:24:28;;;;;;;6.55;5.95;;;;;;;25.10;nan;100745.38;5004696;28;20046;-84
2023/06/18 08:26:56;;;;;;;6.10;5.60;;;;;;;25.06;nan;100741.22;5001516;28;20422;-81
2023/06/18 08:29:22;;;;;;;6.53;5.90;;;;;;;24.52;nan;100744.53;4996422;28;20044;-83
2023/06/18 08:31:49;;;;;;;5.60;5.07;;;;;;;24.29;nan;100756.19;4978123;28;20046;-82
2023/06/18 08:34:16;;;;;;;6.28;5.68;;;;;;;24.33;nan;100745.09;4982164;28;20045;-82
2023/06/18 08:36:46;;;;;;;6.53;5.75;;;;;;;24.41;nan;100739.09;5011432;28;20042;-84
2023/06/18 08:39:14;;;;;;;8.00;5.75;;;;;;;24.94;nan;100747.53;4997347;28;20040;-84
2023/06/18 08:41:43;;;;;;;6.63;6.03;;;;;;;25.26;nan;100745.88;5017181;28;20041;-82
2023/06/18 08:44:13;;;;;;;7.30;6.60;;;;;;;24.98;nan;100746.34;5004713;28;20052;-84
2023/06/18 08:46:42;;;;;;;8.02;6.10;;;;;;;24.45;nan;100750.50;5022474;28;20041;-84
2023/06/18 08:49:09;;;;;;;5.93;5.35;;;;;;;25.22;nan;100748.94;5013580;28;20044;-83
2023/06/18 08:51:37;;;;;;;6.45;5.85;;;;;;;25.62;nan;100745.69;5011277;28;20492;-84
2023/06/18 08:54:09;;;;;;;6.80;6.10;;;;;;;24.65;nan;100750.69;5016092;28;20033;-82
2023/06/18 08:56:47;;;;;;;8.68;6.22;;;;;;;24.36;nan;100750.25;5008205;28;20052;-82
2023/06/18 08:59:14;;;;;;;6.45;5.80;;;;;;;24.15;nan;100749.16;4979372;28;20814;-83
2023/06/18 09:01:43;;;;;;;7.60;6.30;;;;;;;24.15;nan;100746.47;5005090;28;20096;-83
2023/06/18 09:04:10;;;;;;;7.28;6.45;;;;;;;24.43;nan;100739.84;4980844;28;20048;-83
2023/06/18 09:06:39;;;;;;;6.03;5.40;;;;;;;24.57;nan;100745.03;4993215;28;20050;-82
2023/06/18 09:09:06;;;;;;;6.38;5.78;;;;;;;24.92;nan;100731.44;4994738;28;20044;-84
2023/06/18 09:11:34;;;;;;;7.13;6.47;;;;;;;25.47;nan;100739.69;5008125;28;20041;-82
2023/06/18 09:14:03;;;;;;;6.80;6.18;;;;;;;25.42;nan;100740.09;4990100;28;20034;-82
2023/06/18 09:16:30;;;;;;;7.85;6.97;;;;;;;24.51;nan;100734.69;4995148;28;20514;-82
2023/06/18 09:18:59;;;;;;;7.82;6.18;;;;;;;25.33;nan;100730.00;5012536;28;20049;-82
2023/06/18 09:21:42;;;;;;;7.38;5.60;;;;;;;25.48;nan;100736.03;4989135;28;20033;-82
2023/06/18 09:24:15;;;;;;;5.72;5.18;;;;;;;25.47;nan;100742.41;4997870;28;20053;-82
2023/06/18 09:26:42;;;;;;;5.25;4.75;;;;;;;24.85;nan;100740.16;5022269;28;20052;-83
2023/06/18 09:29:10;;;;;;;5.55;5.05;;;;;;;24.90;nan;100733.44;5028957;28;20060;-83
2023/06/18 09:31:44;;;;;;;7.13;5.97;;;;;;;24.68;nan;100736.94;5012407;28;20038;-82
2023/06/18 09:34:16;;;;;;;5.32;4.82;;;;;;;24.86;nan;100736.47;4988888;28;20545;-82
2023/06/18 09:36:45;;;;;;;6.40;5.10;;;;;;;25.00;nan;100733.56;4995898;28;20038;-83
2023/06/18 09:39:21;;;;;;;4.72;4.30;;;;;;;25.47;nan;100731.56;4997534;28;20038;-83
2023/06/18 09:41:50;;;;;;;6.00;5.38;;;;;;;25.98;nan;100728.28;5017935;28;20041;-84
2023/06/18 09:44:18;;;;;;;6.78;6.13;;;;;;;26.33;nan;100728.88;4986940;28;20052;-85
2023/06/18 09:46:47;;;;;;;7.55;6.30;;;;;;;26.16;nan;100734.03;4990706;28;20530;-82
2023/06/18 09:49:19;;;;;;;8.77;5.40;;;;;;;25.96;nan;100731.13;5002165;28;20053;-82
2023/06/18 09:51:49;;;;;;;5.75;5.18;;;;;;;25.53;nan;100731.06;5008075;28;20668;-82
2023/06/18 09:54:16;;;;;;;5.28;4.85;;;;;;;24.83;nan;100728.63;5018816;28;20533;-82
2023/06/18 09:56:57;;;;;;;5.55;4.95;;;;;;;24.57;nan;100734.22;4999801;28;20044;-82
2023/06/18 09:59:25;;;;;;;6.18;5.57;;;;;;;24.22;nan;100731.53;5017336;28;20042;-82
2023/06/18 10:01:53;;;;;;;5.80;5.20;;;;;;;24.41;nan;100725.59;4991345;28;20503;-82
2023/06/18 10:04:20;;;;;;;5.75;5.18;;;;;;;24.93;nan;100718.81;5004461;28;20369;-82
2023/06/18 10:06:52;;;;;;;5.38;4.88;;;;;;;24.30;nan;100725.50;4991848;28;20519;-81
2023/06/18 10:09:19;;;;;;;6.25;5.50;;;;;;;24.44;nan;100725.34;4992081;28;20410;-81
2023/06/18 10:11:51;;;;;;;6.18;5.57;;;;;;;24.93;nan;100719.66;5010555;28;20390;-81
2023/06/18 10:14:22;;;;;;;6.45;5.15;;;;;;;25.03;nan;100724.34;4994998;28;20038;-82
2023/06/18 10:16:50;;;;;;;6.30;5.70;;;;;;;25.12;nan;100727.19;5014990;28;20653;-82
2023/06/18 10:19:26;;;;;;;6.05;5.55;;;;;;;24.46;nan;100728.78;5019527;28;20052;-83
2023/06/18 10:22:03;;;;;;;6.05;5.55;;;;;;;24.47;nan;100727.81;4977220;28;20630;-83
2023/06/18 10:24:34;;;;;;;5.70;5.20;;;;;;;24.34;nan;100724.34;4994165;28;20120;-83
2023/06/18 10:27:02;;;;;;;5.93;5.43;;;;;;;24.20;nan;100728.06;5011468;28;20045;-82
2023/06/18 10:29:31;;;;;;;5.72;5.10;;;;;;;24.03;nan;100725.78;5008555;28;20514;-83
2023/06/18 10:32:00;;;;;;;6.95;5.45;;;;;;;23.93;nan;100725.63;4982419;28;20048;-81
2023/06/18 10:34:27;;;;;;;6.03;5.50;;;;;;;23.78;nan;100726.75;4974460;28;20054;-83
2023/06/18 10:36:55;;;;;;;5.97;5.38;;;;;;;23.52;nan;100731.34;4979046;28;20033;-83
2023/06/18 10:39:22;;;;;;;6.32;5.72;;;;;;;23.39;nan;100728.69;5001263;28;20048;-82
2023/06/18 10:41:52;;;;;;;5.80;5.20;;;;;;;23.40;nan;100725.03;4980329;28;20030;-82
2023/06/18 10:44:48;;;;;;;7.32;5.65;;;;;;;24.06;nan;100731.81;4982499;28;20067;-82
2023/06/18 10:47:19;;;;;;;6.45;5.30;;;;;;;24.68;nan;100715.34;5023711;28;20108;-82
2023/06/18 10:50:08;;;;;;;8.05;6.18;;;;;;;25.12;nan;100727.19;4994022;28;20053;-83
2023/06/18 10:52:35;;;;;;;7.22;6.32;;;;;;;25.16;nan;100719.69;4988340;28;20040;-84
2023/06/18 10:55:15;;;;;;;5.55;5.00;;;;;;;25.20;nan;100718.47;5006374;28;20125;-82
2023/06/18 10:57:45;;;;;;;7.50;6.13;;;;;;;24.96;nan;100722.09;4990732;28;20655;-83
2023/06/18 11:00:30;;;;;;;5.25;4.78;;;;;;;24.86;nan;100714.84;5004015;28;20060;-83
2023/06/18 11:03:13;;;;;;;6.22;5.63;;;;;;;24.54;nan;100720.94;4993664;28;20048;-82
2023/06/18 11:05:53;;;;;;;5.80;5.30;;;;;;;24.55;nan;100717.28;5006695;28;20048;-83
2023/06/18 11:08:30;;;;;;;5.70;5.10;;;;;;;24.54;nan;100720.94;4989511;28;20038;-83
2023/06/18 11:11:05;;;;;;;7.43;5.90;;;;;;;24.44;nan;100714.53;4970194;28;20400;-81
2023/06/18 11:13:36;;;;;;;6.68;5.35;;;;;;;24.64;nan;100721.13;4990704;28;20047;-82
2023/06/18 11:16:06;;;;;;;9.10;5.70;;;;;;;24.59;nan;100718.75;5006000;28;20049;-83
2023/06/18 11:18:34;;;;;;;5.57;5.07;;;;;;;24.59;nan;100713.34;5014981;28;20495;-82
2023/06/18 11:21:05;;;;;;;6.05;5.43;;;;;;;24.78;nan;100706.50;4981452;28;20045;-82
2023/06/18 11:23:32;;;;;;;5.68;5.18;;;;;;;24.92;nan;100714.38;4994427;28;20048;-82
2023/06/18 11:26:00;;;;;;;5.50;5.00;;;;;;;25.08;nan;100708.66;4995143;28;20043;-83
2023/06/18 11:28:27;;;;;;;6.30;5.75;;;;;;;25.22;nan;100705.66;4998132;28;20036;-84
2023/06/18 11:30:58;;;;;;;6.05;5.45;;;;;;;25.11;nan;100697.56;5002173;28;20064;-84
2023/06/18 11:33:30;;;;;;;6.22;5.63;;;;;;;24.99;nan;100699.41;4991319;28;20469;-83
2023/06/18 11:36:08;;;;;;;6.40;5.20;;;;;;;24.84;nan;100701.47;5015548;28;20148;-83
2023/06/18 11:38:36;;;;;;;5.28;4.78;;;;;;;24.98;nan;100700.38;5010051;28;20038;-82